ドーハ の空港の天気 - METARとTAF

ドーハ国際空港 ( OTBD / DOH ) - カタール ドーハ
飛行場実況気象(Metar)
観測時間11/17 20:30 AST (11/17 17:30 UTC)
風向・風速北西 7m/s
視程10km以上
天気現象
なし
気温25℃
湿度74%
気圧1018hPa
METAROTBD 171730Z 32014KT CAVOK 25/20 Q1018 NOSIG
過去の天気等 Google飛行場航空写真 Wunderground天気予報

過去48時間のMETAR

飛行場予報(TAF)
発表時間: 11/17 20:04 AST (11/17 17:04 UTC)
予報対象時間: 17日21時 AST ~ 19日3時 AST
風向・風速北西 7m/s
視程10km以上
少しの雲 雲底高度 1070m
TAF OTBD 171704Z 1718/1824 32014KT 9999 FEW035